Tropical Cyclones
[Index]
Main Index Home Page Stock Weather Photos Extreme Storms Discussion Storm News and Storm Chasing Reports Tropical Cyclones / Hurricanes / Typhoons Weather Data and Links Wild Fires / Bushfires Weather Observation Techniques Weather Picture Catalogue Tornado Pictures and Reports Stock Video Footage and DVDs for sale
Season 2008-2009 Tropical Cyclone JADE Track Map
Season 2008-2009 Summaries: [BoM-AU] [JTWC-AU] [JTWC-SIO] [JTWC-SPAC] [JTWC-SH]
<<- Previous TC | JTWC 2008-2009 Season | Next TC ->>

click for intensity scale information  Lat/long Grid: Show Hide

 Date Labels: Show Hide

Joint Typhoon Warning Centre Cyclone Data

Name: JADE

02 Apr 2009 18:00 UTC to 11 Apr 2009 18:00 UTC

    date/time    lat    long     hPa   cat  kts
2009-04-02 18   11.8    62.0    1007         20          
2009-04-03 00   12.2    60.3    1007         20          
2009-04-03 06   11.6    58.8    1007         20          
2009-04-03 12   11.3    58.2    1007         20          
2009-04-03 18   11.1    57.6    1004         25          
2009-04-04 00   11.2    57.0    1000         30          
2009-04-04 06   11.7    56.4    1000         30          
2009-04-04 12   12.4    56.0     996         35          
2009-04-04 18   13.0    55.0     989    1    45          
2009-04-05 00   13.3    53.9     989    1    45          
2009-04-05 06   13.5    52.9     989    1    45          
2009-04-05 12   13.9    52.0     982    2    55          
2009-04-05 18   14.6    51.3    1000    2    65          
2009-04-05 18   14.6    51.3    1000    2    65          
2009-04-06 00   15.4    50.7     974    2    65          
2009-04-06 00   15.4    50.7     974    2    65          
2009-04-06 06   15.7    49.8     974    2    65          
2009-04-06 06   15.7    49.8     974    2    65          
2009-04-06 12   16.5    49.3     982    2    55          
2009-04-06 18   17.4    48.9     989    1    45          
2009-04-07 00   18.4    48.8     993    1    40          
2009-04-07 06   19.2    49.1     996         35          
2009-04-07 12   20.2    49.3     996         35          
2009-04-07 18   20.9    49.2     989    1    45          
2009-04-08 00   21.4    49.2     985    1    50          
2009-04-08 06   21.8    49.3     989    1    45          
2009-04-08 12   22.0    49.5     989    1    45          
2009-04-08 18   22.2    49.8     989    1    45          
2009-04-09 00   22.4    50.0     996         35          
2009-04-09 06   22.5    50.2     996         35          
2009-04-09 12   22.7    50.4     996         35          
2009-04-09 18   23.1    50.8     996         35          
2009-04-10 00   23.6    51.3     996         35          
2009-04-10 06   24.3    51.9     996         35          
2009-04-10 12   25.0    52.6     996         35          
2009-04-10 18   26.0    53.9     996         35          
2009-04-11 00   27.3    55.3     996         35          
2009-04-11 06   29.4    57.0     996         35          
2009-04-11 12   33.0    58.3     996         35          
2009-04-11 18   35.7    58.0     996         35          
Winds are 1-min average.

Tropical cyclone tracks developed by Michael Bath using data from the Joint Typhoon Warning Centre Best Tracks and Google Maps.


[Australian Severe Weather index] [Copyright Notice] [Email Contacts] [Search This Site] [Privacy Policy]
Document: tropical_cyclone_jade.htm Updated: 28 June 2017